sensor_id;sensor_type;location;lat;lon;timestamp;temperature;humidity
48686;DHT22;34485;51.536;3.816;2022-08-05T00:01:20;19.30;99.90
48686;DHT22;34485;51.536;3.816;2022-08-05T00:03:46;19.40;99.90
48686;DHT22;34485;51.536;3.816;2022-08-05T00:06:12;19.40;99.90
48686;DHT22;34485;51.536;3.816;2022-08-05T00:08:39;19.40;99.90
48686;DHT22;34485;51.536;3.816;2022-08-05T00:11:07;19.40;99.90
48686;DHT22;34485;51.536;3.816;2022-08-05T00:13:34;19.40;99.90
48686;DHT22;34485;51.536;3.816;2022-08-05T00:16:00;19.40;99.90
48686;DHT22;34485;51.536;3.816;2022-08-05T00:18:26;19.50;99.90
48686;DHT22;34485;51.536;3.816;2022-08-05T00:20:52;19.40;99.90
48686;DHT22;34485;51.536;3.816;2022-08-05T00:23:18;19.40;99.90
48686;DHT22;34485;51.536;3.816;2022-08-05T00:25:44;19.40;99.90
48686;DHT22;34485;51.536;3.816;2022-08-05T00:28:09;19.40;99.90
48686;DHT22;34485;51.536;3.816;2022-08-05T00:30:35;19.40;99.90
48686;DHT22;34485;51.536;3.816;2022-08-05T00:33:01;19.40;99.90
48686;DHT22;34485;51.536;3.816;2022-08-05T00:35:26;19.30;99.90
48686;DHT22;34485;51.536;3.816;2022-08-05T00:37:52;19.30;99.90
48686;DHT22;34485;51.536;3.816;2022-08-05T00:40:19;19.30;99.90
48686;DHT22;34485;51.536;3.816;2022-08-05T00:42:45;19.30;99.90
48686;DHT22;34485;51.536;3.816;2022-08-05T00:45:10;19.30;99.90
48686;DHT22;34485;51.536;3.816;2022-08-05T00:47:36;19.30;99.90
48686;DHT22;34485;51.536;3.816;2022-08-05T00:50:02;19.30;99.90
48686;DHT22;34485;51.536;3.816;2022-08-05T00:52:27;19.20;99.90
48686;DHT22;34485;51.536;3.816;2022-08-05T00:54:53;19.20;99.90
48686;DHT22;34485;51.536;3.816;2022-08-05T00:57:18;19.30;99.90
48686;DHT22;34485;51.536;3.816;2022-08-05T00:59:44;19.40;99.90
48686;DHT22;34485;51.536;3.816;2022-08-05T01:02:10;19.30;99.90
48686;DHT22;34485;51.536;3.816;2022-08-05T01:04:35;19.40;99.40
48686;DHT22;34485;51.536;3.816;2022-08-05T01:07:01;19.30;99.90
48686;DHT22;34485;51.536;3.816;2022-08-05T01:09:27;19.40;96.40
48686;DHT22;34485;51.536;3.816;2022-08-05T01:11:54;19.30;96.80
48686;DHT22;34485;51.536;3.816;2022-08-05T01:14:35;19.30;96.80
48686;DHT22;34485;51.536;3.816;2022-08-05T01:17:30;19.30;96.50
48686;DHT22;34485;51.536;3.816;2022-08-05T01:28:26;19.10;91.70
48686;DHT22;34485;51.536;3.816;2022-08-05T01:31:01;19.00;91.30
48686;DHT22;34485;51.536;3.816;2022-08-05T01:33:33;19.00;99.90
48686;DHT22;34485;51.536;3.816;2022-08-05T01:36:04;18.90;99.90
48686;DHT22;34485;51.536;3.816;2022-08-05T01:38:31;18.90;91.30
48686;DHT22;34485;51.536;3.816;2022-08-05T01:40:59;18.90;91.10
48686;DHT22;34485;51.536;3.816;2022-08-05T01:43:27;18.80;90.90
48686;DHT22;34485;51.536;3.816;2022-08-05T01:45:53;18.80;90.90
48686;DHT22;34485;51.536;3.816;2022-08-05T01:48:20;18.80;91.30
48686;DHT22;34485;51.536;3.816;2022-08-05T01:50:47;18.70;91.10
48686;DHT22;34485;51.536;3.816;2022-08-05T01:53:14;18.70;91.20
48686;DHT22;34485;51.536;3.816;2022-08-05T01:55:43;18.70;91.40
48686;DHT22;34485;51.536;3.816;2022-08-05T01:58:10;18.70;91.80
48686;DHT22;34485;51.536;3.816;2022-08-05T02:00:39;18.70;92.10
48686;DHT22;34485;51.536;3.816;2022-08-05T02:03:15;18.70;92.20
48686;DHT22;34485;51.536;3.816;2022-08-05T02:05:42;18.70;92.30
48686;DHT22;34485;51.536;3.816;2022-08-05T02:08:09;18.70;92.60
48686;DHT22;34485;51.536;3.816;2022-08-05T02:10:48;18.70;92.90
48686;DHT22;34485;51.536;3.816;2022-08-05T02:13:18;18.60;93.00
48686;DHT22;34485;51.536;3.816;2022-08-05T02:15:54;18.70;97.40
48686;DHT22;34485;51.536;3.816;2022-08-05T02:21:17;18.60;93.80
48686;DHT22;34485;51.536;3.816;2022-08-05T02:23:47;18.60;94.00
48686;DHT22;34485;51.536;3.816;2022-08-05T02:26:19;18.60;94.30
48686;DHT22;34485;51.536;3.816;2022-08-05T02:28:46;18.50;94.40
48686;DHT22;34485;51.536;3.816;2022-08-05T02:31:21;18.50;94.20
48686;DHT22;34485;51.536;3.816;2022-08-05T02:33:57;18.50;94.40
48686;DHT22;34485;51.536;3.816;2022-08-05T02:36:25;18.50;94.60
48686;DHT22;34485;51.536;3.816;2022-08-05T02:38:53;18.50;94.90
48686;DHT22;34485;51.536;3.816;2022-08-05T02:41:21;18.50;95.10
48686;DHT22;34485;51.536;3.816;2022-08-05T02:43:48;18.50;95.40
48686;DHT22;34485;51.536;3.816;2022-08-05T02:46:15;18.50;95.80
48686;DHT22;34485;51.536;3.816;2022-08-05T02:48:43;18.50;96.20
48686;DHT22;34485;51.536;3.816;2022-08-05T02:51:08;18.50;96.70
48686;DHT22;34485;51.536;3.816;2022-08-05T02:53:37;18.40;96.90
48686;DHT22;34485;51.536;3.816;2022-08-05T02:56:03;18.40;97.10
48686;DHT22;34485;51.536;3.816;2022-08-05T02:58:30;18.40;97.60
48686;DHT22;34485;51.536;3.816;2022-08-05T03:00:59;18.30;97.20
48686;DHT22;34485;51.536;3.816;2022-08-05T03:03:27;18.30;97.60
48686;DHT22;34485;51.536;3.816;2022-08-05T03:05:53;18.30;98.20
48686;DHT22;34485;51.536;3.816;2022-08-05T03:08:20;18.30;97.90
48686;DHT22;34485;51.536;3.816;2022-08-05T03:10:46;18.30;98.00
48686;DHT22;34485;51.536;3.816;2022-08-05T03:13:16;18.30;97.90
48686;DHT22;34485;51.536;3.816;2022-08-05T03:15:43;18.30;97.80
48686;DHT22;34485;51.536;3.816;2022-08-05T03:18:09;18.30;97.60
48686;DHT22;34485;51.536;3.816;2022-08-05T03:20:34;18.30;97.70
48686;DHT22;34485;51.536;3.816;2022-08-05T03:23:00;18.20;97.70
48686;DHT22;34485;51.536;3.816;2022-08-05T03:25:26;18.20;98.00
48686;DHT22;34485;51.536;3.816;2022-08-05T03:27:54;18.20;98.10
48686;DHT22;34485;51.536;3.816;2022-08-05T03:30:21;18.10;98.40
48686;DHT22;34485;51.536;3.816;2022-08-05T03:32:47;18.10;98.50
48686;DHT22;34485;51.536;3.816;2022-08-05T03:35:13;18.00;98.80
48686;DHT22;34485;51.536;3.816;2022-08-05T03:37:40;18.00;99.30
48686;DHT22;34485;51.536;3.816;2022-08-05T03:40:06;17.90;99.60
48686;DHT22;34485;51.536;3.816;2022-08-05T03:42:33;17.90;99.70
48686;DHT22;34485;51.536;3.816;2022-08-05T03:44:59;17.90;99.90
48686;DHT22;34485;51.536;3.816;2022-08-05T03:47:25;17.80;99.90
48686;DHT22;34485;51.536;3.816;2022-08-05T03:49:51;17.80;99.90
48686;DHT22;34485;51.536;3.816;2022-08-05T03:52:25;17.80;99.90
48686;DHT22;34485;51.536;3.816;2022-08-05T03:54:56;17.70;99.90
48686;DHT22;34485;51.536;3.816;2022-08-05T03:57:25;17.60;99.90
48686;DHT22;34485;51.536;3.816;2022-08-05T04:00:00;17.60;99.90
48686;DHT22;34485;51.536;3.816;2022-08-05T04:02:30;17.50;99.90
48686;DHT22;34485;51.536;3.816;2022-08-05T04:04:58;17.40;99.90
48686;DHT22;34485;51.536;3.816;2022-08-05T04:07:24;17.30;99.90
48686;DHT22;34485;51.536;3.816;2022-08-05T04:09:52;17.30;99.90
48686;DHT22;34485;51.536;3.816;2022-08-05T04:12:18;17.20;99.90
48686;DHT22;34485;51.536;3.816;2022-08-05T04:14:43;17.10;99.90
48686;DHT22;34485;51.536;3.816;2022-08-05T04:17:09;17.10;99.90
48686;DHT22;34485;51.536;3.816;2022-08-05T04:19:44;17.00;99.90
48686;DHT22;34485;51.536;3.816;2022-08-05T04:22:10;17.10;99.90
48686;DHT22;34485;51.536;3.816;2022-08-05T04:24:41;17.10;99.90
48686;DHT22;34485;51.536;3.816;2022-08-05T04:27:07;17.00;99.90
48686;DHT22;34485;51.536;3.816;2022-08-05T04:29:33;17.00;99.90
48686;DHT22;34485;51.536;3.816;2022-08-05T04:31:59;17.00;99.90
48686;DHT22;34485;51.536;3.816;2022-08-05T04:34:24;17.00;99.90
48686;DHT22;34485;51.536;3.816;2022-08-05T04:36:50;16.90;99.90
48686;DHT22;34485;51.536;3.816;2022-08-05T04:39:17;16.90;99.90
48686;DHT22;34485;51.536;3.816;2022-08-05T04:41:42;16.90;99.90
48686;DHT22;34485;51.536;3.816;2022-08-05T04:44:08;16.90;99.90
48686;DHT22;34485;51.536;3.816;2022-08-05T04:46:33;16.90;99.90
48686;DHT22;34485;51.536;3.816;2022-08-05T04:48:59;16.90;99.90
48686;DHT22;34485;51.536;3.816;2022-08-05T04:51:25;16.80;99.90
48686;DHT22;34485;51.536;3.816;2022-08-05T04:53:50;16.90;99.90
48686;DHT22;34485;51.536;3.816;2022-08-05T04:56:16;16.90;99.90
48686;DHT22;34485;51.536;3.816;2022-08-05T04:58:41;17.00;99.90
48686;DHT22;34485;51.536;3.816;2022-08-05T05:01:07;17.10;99.90
48686;DHT22;34485;51.536;3.816;2022-08-05T05:03:33;17.30;99.90
48686;DHT22;34485;51.536;3.816;2022-08-05T05:05:58;17.40;99.90
48686;DHT22;34485;51.536;3.816;2022-08-05T05:08:24;17.50;99.90
48686;DHT22;34485;51.536;3.816;2022-08-05T05:10:49;17.60;99.90
48686;DHT22;34485;51.536;3.816;2022-08-05T05:13:16;17.70;99.90
48686;DHT22;34485;51.536;3.816;2022-08-05T05:15:43;17.80;99.90
48686;DHT22;34485;51.536;3.816;2022-08-05T05:18:12;17.90;99.90
48686;DHT22;34485;51.536;3.816;2022-08-05T05:20:38;18.00;99.60
48686;DHT22;34485;51.536;3.816;2022-08-05T05:23:04;18.10;98.90
48686;DHT22;34485;51.536;3.816;2022-08-05T05:25:30;18.20;98.70
48686;DHT22;34485;51.536;3.816;2022-08-05T05:27:55;18.20;98.20
48686;DHT22;34485;51.536;3.816;2022-08-05T05:30:21;18.30;98.30
48686;DHT22;34485;51.536;3.816;2022-08-05T05:32:47;18.30;97.90
48686;DHT22;34485;51.536;3.816;2022-08-05T05:35:14;18.40;97.70
48686;DHT22;34485;51.536;3.816;2022-08-05T05:37:54;18.40;97.10
48686;DHT22;34485;51.536;3.816;2022-08-05T05:40:22;18.60;99.90
48686;DHT22;34485;51.536;3.816;2022-08-05T05:42:49;18.60;96.30
48686;DHT22;34485;51.536;3.816;2022-08-05T05:45:15;18.70;95.50
48686;DHT22;34485;51.536;3.816;2022-08-05T05:47:41;18.70;94.90
48686;DHT22;34485;51.536;3.816;2022-08-05T05:50:08;18.80;94.90
48686;DHT22;34485;51.536;3.816;2022-08-05T05:52:34;18.80;94.60
48686;DHT22;34485;51.536;3.816;2022-08-05T05:55:02;18.80;94.00
48686;DHT22;34485;51.536;3.816;2022-08-05T05:57:28;18.90;94.20
48686;DHT22;34485;51.536;3.816;2022-08-05T05:59:53;18.90;94.90
48686;DHT22;34485;51.536;3.816;2022-08-05T06:02:19;19.00;93.80
48686;DHT22;34485;51.536;3.816;2022-08-05T06:04:45;19.10;94.30
48686;DHT22;34485;51.536;3.816;2022-08-05T06:07:10;19.30;92.60
48686;DHT22;34485;51.536;3.816;2022-08-05T06:09:36;19.50;93.10
48686;DHT22;34485;51.536;3.816;2022-08-05T06:12:02;19.80;99.90
48686;DHT22;34485;51.536;3.816;2022-08-05T06:14:31;20.00;89.10
48686;DHT22;34485;51.536;3.816;2022-08-05T06:16:57;20.30;85.20
48686;DHT22;34485;51.536;3.816;2022-08-05T06:19:23;20.40;80.50
48686;DHT22;34485;51.536;3.816;2022-08-05T06:21:49;20.50;82.90
48686;DHT22;34485;51.536;3.816;2022-08-05T06:24:14;20.60;81.10
48686;DHT22;34485;51.536;3.816;2022-08-05T06:26:40;20.60;78.40
48686;DHT22;34485;51.536;3.816;2022-08-05T06:29:06;20.50;76.50
48686;DHT22;34485;51.536;3.816;2022-08-05T06:31:31;20.40;77.40
48686;DHT22;34485;51.536;3.816;2022-08-05T06:33:57;20.20;94.40
48686;DHT22;34485;51.536;3.816;2022-08-05T06:36:22;20.10;91.00
48686;DHT22;34485;51.536;3.816;2022-08-05T06:38:48;20.00;90.60
48686;DHT22;34485;51.536;3.816;2022-08-05T06:41:18;20.00;90.40
48686;DHT22;34485;51.536;3.816;2022-08-05T06:43:43;20.00;87.90
48686;DHT22;34485;51.536;3.816;2022-08-05T06:46:09;20.10;90.10
48686;DHT22;34485;51.536;3.816;2022-08-05T06:48:34;20.20;86.40
48686;DHT22;34485;51.536;3.816;2022-08-05T06:51:00;20.20;83.50
48686;DHT22;34485;51.536;3.816;2022-08-05T06:53:27;20.20;80.70
48686;DHT22;34485;51.536;3.816;2022-08-05T06:55:53;20.20;82.00
48686;DHT22;34485;51.536;3.816;2022-08-05T06:58:18;20.20;78.80
48686;DHT22;34485;51.536;3.816;2022-08-05T07:00:44;20.30;79.40
48686;DHT22;34485;51.536;3.816;2022-08-05T07:03:09;20.40;77.90
48686;DHT22;34485;51.536;3.816;2022-08-05T07:05:35;20.40;77.80
48686;DHT22;34485;51.536;3.816;2022-08-05T07:08:00;20.50;76.90
48686;DHT22;34485;51.536;3.816;2022-08-05T07:10:26;20.60;76.90
48686;DHT22;34485;51.536;3.816;2022-08-05T07:12:52;20.70;76.80
48686;DHT22;34485;51.536;3.816;2022-08-05T07:15:36;20.80;75.00
48686;DHT22;34485;51.536;3.816;2022-08-05T07:18:20;21.00;73.80
48686;DHT22;34485;51.536;3.816;2022-08-05T07:20:45;21.10;71.60
48686;DHT22;34485;51.536;3.816;2022-08-05T07:23:11;21.20;70.70
48686;DHT22;34485;51.536;3.816;2022-08-05T07:25:36;21.40;71.50
48686;DHT22;34485;51.536;3.816;2022-08-05T07:28:02;21.90;70.70
48686;DHT22;34485;51.536;3.816;2022-08-05T07:30:32;22.80;66.90
48686;DHT22;34485;51.536;3.816;2022-08-05T07:32:58;23.60;63.00
48686;DHT22;34485;51.536;3.816;2022-08-05T07:35:23;24.10;59.70
48686;DHT22;34485;51.536;3.816;2022-08-05T07:37:49;24.70;58.20
48686;DHT22;34485;51.536;3.816;2022-08-05T07:40:15;24.70;55.80
48686;DHT22;34485;51.536;3.816;2022-08-05T07:42:40;24.80;55.50
48686;DHT22;34485;51.536;3.816;2022-08-05T07:45:06;24.80;54.90
48686;DHT22;34485;51.536;3.816;2022-08-05T07:47:32;24.60;54.10
48686;DHT22;34485;51.536;3.816;2022-08-05T07:49:58;24.10;55.80
48686;DHT22;34485;51.536;3.816;2022-08-05T07:52:23;23.90;56.50
48686;DHT22;34485;51.536;3.816;2022-08-05T07:54:49;23.80;56.60
48686;DHT22;34485;51.536;3.816;2022-08-05T07:57:14;23.50;55.90
48686;DHT22;34485;51.536;3.816;2022-08-05T07:59:40;23.60;55.50
48686;DHT22;34485;51.536;3.816;2022-08-05T08:02:06;23.60;56.30
48686;DHT22;34485;51.536;3.816;2022-08-05T08:04:32;23.70;56.30
48686;DHT22;34485;51.536;3.816;2022-08-05T08:06:57;23.70;55.50
48686;DHT22;34485;51.536;3.816;2022-08-05T08:09:25;23.60;54.80
48686;DHT22;34485;51.536;3.816;2022-08-05T08:11:51;23.50;54.90
48686;DHT22;34485;51.536;3.816;2022-08-05T08:14:17;23.40;55.90
48686;DHT22;34485;51.536;3.816;2022-08-05T08:16:44;23.40;56.10
48686;DHT22;34485;51.536;3.816;2022-08-05T08:19:09;23.60;54.90
48686;DHT22;34485;51.536;3.816;2022-08-05T08:21:35;23.50;54.90
48686;DHT22;34485;51.536;3.816;2022-08-05T08:24:01;23.60;58.20
48686;DHT22;34485;51.536;3.816;2022-08-05T08:26:27;24.20;56.10
48686;DHT22;34485;51.536;3.816;2022-08-05T08:28:52;24.70;53.60
48686;DHT22;34485;51.536;3.816;2022-08-05T08:31:18;24.60;51.90
48686;DHT22;34485;51.536;3.816;2022-08-05T08:33:44;24.10;53.60
48686;DHT22;34485;51.536;3.816;2022-08-05T08:36:10;23.70;54.00
48686;DHT22;34485;51.536;3.816;2022-08-05T08:38:36;23.60;53.90
48686;DHT22;34485;51.536;3.816;2022-08-05T08:41:05;23.60;54.10
48686;DHT22;34485;51.536;3.816;2022-08-05T08:43:34;23.60;54.40
48686;DHT22;34485;51.536;3.816;2022-08-05T08:46:02;23.30;54.60
48686;DHT22;34485;51.536;3.816;2022-08-05T08:48:30;23.20;55.30
48686;DHT22;34485;51.536;3.816;2022-08-05T08:50:56;23.30;54.10
48686;DHT22;34485;51.536;3.816;2022-08-05T08:53:24;23.30;52.50
48686;DHT22;34485;51.536;3.816;2022-08-05T08:55:51;23.20;52.10
48686;DHT22;34485;51.536;3.816;2022-08-05T08:58:17;23.10;51.80
48686;DHT22;34485;51.536;3.816;2022-08-05T09:00:44;22.90;52.20
48686;DHT22;34485;51.536;3.816;2022-08-05T09:03:10;22.80;53.80
48686;DHT22;34485;51.536;3.816;2022-08-05T09:05:36;22.80;53.90
48686;DHT22;34485;51.536;3.816;2022-08-05T09:08:02;22.50;55.80
48686;DHT22;34485;51.536;3.816;2022-08-05T09:10:28;22.30;55.90
48686;DHT22;34485;51.536;3.816;2022-08-05T09:12:54;22.00;55.30
48686;DHT22;34485;51.536;3.816;2022-08-05T09:15:20;21.50;56.40
48686;DHT22;34485;51.536;3.816;2022-08-05T09:17:46;21.40;58.60
48686;DHT22;34485;51.536;3.816;2022-08-05T09:20:12;21.30;59.40
48686;DHT22;34485;51.536;3.816;2022-08-05T09:25:29;21.40;59.50
48686;DHT22;34485;51.536;3.816;2022-08-05T09:27:54;21.70;87.50
48686;DHT22;34485;51.536;3.816;2022-08-05T09:30:20;21.80;59.10
48686;DHT22;34485;51.536;3.816;2022-08-05T09:32:46;22.30;57.80
48686;DHT22;34485;51.536;3.816;2022-08-05T09:35:14;22.60;55.50
48686;DHT22;34485;51.536;3.816;2022-08-05T09:37:51;23.20;56.40
48686;DHT22;34485;51.536;3.816;2022-08-05T09:40:30;24.50;55.10
48686;DHT22;34485;51.536;3.816;2022-08-05T09:42:56;25.90;48.80
48686;DHT22;34485;51.536;3.816;2022-08-05T09:45:37;26.50;47.20
48686;DHT22;34485;51.536;3.816;2022-08-05T09:48:20;26.80;46.90
48686;DHT22;34485;51.536;3.816;2022-08-05T09:50:51;27.00;44.40
48686;DHT22;34485;51.536;3.816;2022-08-05T09:53:18;26.90;43.70
48686;DHT22;34485;51.536;3.816;2022-08-05T09:55:44;26.70;44.20
48686;DHT22;34485;51.536;3.816;2022-08-05T09:58:14;26.50;46.10
48686;DHT22;34485;51.536;3.816;2022-08-05T10:01:01;26.70;45.50
48686;DHT22;34485;51.536;3.816;2022-08-05T10:03:27;27.70;43.30
48686;DHT22;34485;51.536;3.816;2022-08-05T10:06:01;28.90;41.80
48686;DHT22;34485;51.536;3.816;2022-08-05T10:08:28;30.00;39.40
48686;DHT22;34485;51.536;3.816;2022-08-05T10:10:55;31.00;37.40
48686;DHT22;34485;51.536;3.816;2022-08-05T10:13:35;31.40;34.30
48686;DHT22;34485;51.536;3.816;2022-08-05T10:16:02;30.70;34.10
48686;DHT22;34485;51.536;3.816;2022-08-05T10:18:29;30.30;34.90
48686;DHT22;34485;51.536;3.816;2022-08-05T10:21:06;30.00;35.70
48686;DHT22;34485;51.536;3.816;2022-08-05T10:23:34;30.40;35.60
48686;DHT22;34485;51.536;3.816;2022-08-05T10:26:05;30.90;34.30
48686;DHT22;34485;51.536;3.816;2022-08-05T10:28:31;30.70;31.90
48686;DHT22;34485;51.536;3.816;2022-08-05T10:30:59;30.30;34.20
48686;DHT22;34485;51.536;3.816;2022-08-05T10:33:26;29.80;34.70
48686;DHT22;34485;51.536;3.816;2022-08-05T10:35:54;29.50;35.00
48686;DHT22;34485;51.536;3.816;2022-08-05T10:38:22;29.00;36.20
48686;DHT22;34485;51.536;3.816;2022-08-05T10:46:13;27.50;56.20
48686;DHT22;34485;51.536;3.816;2022-08-05T10:48:41;27.40;38.90
48686;DHT22;34485;51.536;3.816;2022-08-05T10:51:13;27.70;39.50
48686;DHT22;34485;51.536;3.816;2022-08-05T10:53:42;28.30;39.10
48686;DHT22;34485;51.536;3.816;2022-08-05T10:56:17;29.10;37.40
48686;DHT22;34485;51.536;3.816;2022-08-05T11:01:30;29.90;36.60
48686;DHT22;34485;51.536;3.816;2022-08-05T11:04:10;30.90;34.50
48686;DHT22;34485;51.536;3.816;2022-08-05T11:09:22;32.50;31.10
48686;DHT22;34485;51.536;3.816;2022-08-05T11:11:49;32.60;30.00
48686;DHT22;34485;51.536;3.816;2022-08-05T11:14:30;32.70;31.70
48686;DHT22;34485;51.536;3.816;2022-08-05T11:19:58;34.20;29.40
48686;DHT22;34485;51.536;3.816;2022-08-05T11:22:43;34.60;28.20
48686;DHT22;34485;51.536;3.816;2022-08-05T11:33:33;33.50;28.00
48686;DHT22;34485;51.536;3.816;2022-08-05T11:36:04;33.50;28.70
48686;DHT22;34485;51.536;3.816;2022-08-05T11:41:07;33.70;27.70
48686;DHT22;34485;51.536;3.816;2022-08-05T11:43:33;33.80;28.20
48686;DHT22;34485;51.536;3.816;2022-08-05T11:46:00;33.40;28.80
48686;DHT22;34485;51.536;3.816;2022-08-05T11:48:26;33.00;27.70
48686;DHT22;34485;51.536;3.816;2022-08-05T11:50:53;32.60;28.40
48686;DHT22;34485;51.536;3.816;2022-08-05T11:53:20;32.50;28.50
48686;DHT22;34485;51.536;3.816;2022-08-05T11:56:12;32.20;28.50
48686;DHT22;34485;51.536;3.816;2022-08-05T11:58:43;31.90;28.30
48686;DHT22;34485;51.536;3.816;2022-08-05T12:01:12;31.30;30.20
48686;DHT22;34485;51.536;3.816;2022-08-05T12:03:41;31.00;31.50
48686;DHT22;34485;51.536;3.816;2022-08-05T12:06:09;30.70;30.50
48686;DHT22;34485;51.536;3.816;2022-08-05T12:08:47;30.10;30.70
48686;DHT22;34485;51.536;3.816;2022-08-05T12:11:21;29.70;32.70
48686;DHT22;34485;51.536;3.816;2022-08-05T12:13:58;29.40;33.10
48686;DHT22;34485;51.536;3.816;2022-08-05T12:16:26;29.10;32.80
48686;DHT22;34485;51.536;3.816;2022-08-05T12:18:52;28.80;32.90
48686;DHT22;34485;51.536;3.816;2022-08-05T12:21:27;28.40;31.80
48686;DHT22;34485;51.536;3.816;2022-08-05T12:24:06;28.00;33.90
48686;DHT22;34485;51.536;3.816;2022-08-05T12:26:44;27.90;35.90
48686;DHT22;34485;51.536;3.816;2022-08-05T12:29:18;27.80;35.10
48686;DHT22;34485;51.536;3.816;2022-08-05T12:31:47;27.60;37.40
48686;DHT22;34485;51.536;3.816;2022-08-05T12:34:14;27.30;38.10
48686;DHT22;34485;51.536;3.816;2022-08-05T12:36:41;27.00;40.90
48686;DHT22;34485;51.536;3.816;2022-08-05T12:39:07;27.00;40.60
48686;DHT22;34485;51.536;3.816;2022-08-05T12:41:35;27.00;40.40
48686;DHT22;34485;51.536;3.816;2022-08-05T12:44:04;27.00;40.30
48686;DHT22;34485;51.536;3.816;2022-08-05T12:46:32;27.00;41.70
48686;DHT22;34485;51.536;3.816;2022-08-05T12:52:02;26.70;40.00
48686;DHT22;34485;51.536;3.816;2022-08-05T12:54:30;26.70;41.70
48686;DHT22;34485;51.536;3.816;2022-08-05T12:56:58;26.60;42.30
48686;DHT22;34485;51.536;3.816;2022-08-05T12:59:25;26.50;42.20
48686;DHT22;34485;51.536;3.816;2022-08-05T13:02:02;26.60;42.60
48686;DHT22;34485;51.536;3.816;2022-08-05T13:04:39;26.70;42.30
48686;DHT22;34485;51.536;3.816;2022-08-05T13:07:07;26.40;43.80
48686;DHT22;34485;51.536;3.816;2022-08-05T13:09:38;26.40;46.40
48686;DHT22;34485;51.536;3.816;2022-08-05T13:12:06;26.10;45.30
48686;DHT22;34485;51.536;3.816;2022-08-05T13:14:39;26.00;45.90
48686;DHT22;34485;51.536;3.816;2022-08-05T13:20:19;25.70;45.50
48686;DHT22;34485;51.536;3.816;2022-08-05T13:22:47;25.70;44.00
48686;DHT22;34485;51.536;3.816;2022-08-05T13:25:16;25.50;44.10
48686;DHT22;34485;51.536;3.816;2022-08-05T13:27:51;25.60;44.50
48686;DHT22;34485;51.536;3.816;2022-08-05T13:30:19;25.60;43.30
48686;DHT22;34485;51.536;3.816;2022-08-05T13:32:50;25.50;45.50
48686;DHT22;34485;51.536;3.816;2022-08-05T13:35:17;25.40;46.10
48686;DHT22;34485;51.536;3.816;2022-08-05T13:37:43;25.40;46.10
48686;DHT22;34485;51.536;3.816;2022-08-05T13:40:10;25.30;47.20
48686;DHT22;34485;51.536;3.816;2022-08-05T13:42:36;25.30;47.70
48686;DHT22;34485;51.536;3.816;2022-08-05T13:45:02;25.20;46.80
48686;DHT22;34485;51.536;3.816;2022-08-05T13:47:28;25.20;48.30
48686;DHT22;34485;51.536;3.816;2022-08-05T13:49:53;25.20;47.40
48686;DHT22;34485;51.536;3.816;2022-08-05T13:52:24;25.30;45.70
48686;DHT22;34485;51.536;3.816;2022-08-05T13:54:54;25.50;45.50
48686;DHT22;34485;51.536;3.816;2022-08-05T13:57:20;25.50;47.20
48686;DHT22;34485;51.536;3.816;2022-08-05T13:59:46;25.30;47.70
48686;DHT22;34485;51.536;3.816;2022-08-05T14:02:13;25.10;48.50
48686;DHT22;34485;51.536;3.816;2022-08-05T14:04:46;24.80;49.00
48686;DHT22;34485;51.536;3.816;2022-08-05T14:07:38;24.70;48.50
48686;DHT22;34485;51.536;3.816;2022-08-05T14:10:13;24.40;49.30
48686;DHT22;34485;51.536;3.816;2022-08-05T14:12:40;24.30;49.50
48686;DHT22;34485;51.536;3.816;2022-08-05T14:15:06;24.30;49.50
48686;DHT22;34485;51.536;3.816;2022-08-05T14:17:32;24.30;49.90
48686;DHT22;34485;51.536;3.816;2022-08-05T14:19:57;24.40;49.30
48686;DHT22;34485;51.536;3.816;2022-08-05T14:22:23;24.40;48.40
48686;DHT22;34485;51.536;3.816;2022-08-05T14:24:49;24.30;48.60
48686;DHT22;34485;51.536;3.816;2022-08-05T14:27:15;24.10;48.90
48686;DHT22;34485;51.536;3.816;2022-08-05T14:29:40;24.00;49.40
48686;DHT22;34485;51.536;3.816;2022-08-05T14:32:06;24.00;49.10
48686;DHT22;34485;51.536;3.816;2022-08-05T14:34:32;23.90;49.40
48686;DHT22;34485;51.536;3.816;2022-08-05T14:36:58;23.80;49.70
48686;DHT22;34485;51.536;3.816;2022-08-05T14:39:24;23.90;50.00
48686;DHT22;34485;51.536;3.816;2022-08-05T14:41:50;24.00;50.50
48686;DHT22;34485;51.536;3.816;2022-08-05T14:44:16;24.00;50.10
48686;DHT22;34485;51.536;3.816;2022-08-05T14:46:42;24.00;49.50
48686;DHT22;34485;51.536;3.816;2022-08-05T14:49:07;24.10;50.00
48686;DHT22;34485;51.536;3.816;2022-08-05T14:51:37;24.10;48.30
48686;DHT22;34485;51.536;3.816;2022-08-05T14:54:04;24.00;48.80
48686;DHT22;34485;51.536;3.816;2022-08-05T14:56:30;24.00;48.60
48686;DHT22;34485;51.536;3.816;2022-08-05T14:58:56;23.90;48.10
48686;DHT22;34485;51.536;3.816;2022-08-05T15:01:21;23.80;48.60
48686;DHT22;34485;51.536;3.816;2022-08-05T15:03:47;23.80;49.30
48686;DHT22;34485;51.536;3.816;2022-08-05T15:06:12;23.90;48.10
48686;DHT22;34485;51.536;3.816;2022-08-05T15:08:39;23.90;48.20
48686;DHT22;34485;51.536;3.816;2022-08-05T15:11:04;23.70;48.20
48686;DHT22;34485;51.536;3.816;2022-08-05T15:13:32;23.50;48.70
48686;DHT22;34485;51.536;3.816;2022-08-05T15:15:57;23.40;48.80
48686;DHT22;34485;51.536;3.816;2022-08-05T15:18:23;23.40;47.90
48686;DHT22;34485;51.536;3.816;2022-08-05T15:20:49;23.20;47.80
48686;DHT22;34485;51.536;3.816;2022-08-05T15:23:15;23.30;48.70
48686;DHT22;34485;51.536;3.816;2022-08-05T15:25:41;23.30;47.10
48686;DHT22;34485;51.536;3.816;2022-08-05T15:28:07;23.20;47.90
48686;DHT22;34485;51.536;3.816;2022-08-05T15:30:33;23.10;46.40
48686;DHT22;34485;51.536;3.816;2022-08-05T15:33:01;23.10;48.10
48686;DHT22;34485;51.536;3.816;2022-08-05T15:35:27;23.10;48.20
48686;DHT22;34485;51.536;3.816;2022-08-05T15:37:53;23.00;46.60
48686;DHT22;34485;51.536;3.816;2022-08-05T15:40:19;22.70;48.20
48686;DHT22;34485;51.536;3.816;2022-08-05T15:42:44;22.70;49.70
48686;DHT22;34485;51.536;3.816;2022-08-05T15:45:10;22.50;50.40
48686;DHT22;34485;51.536;3.816;2022-08-05T15:47:37;22.40;50.70
48686;DHT22;34485;51.536;3.816;2022-08-05T15:50:04;22.40;51.30
48686;DHT22;34485;51.536;3.816;2022-08-05T15:52:30;22.20;52.30
48686;DHT22;34485;51.536;3.816;2022-08-05T15:54:57;22.10;52.20
48686;DHT22;34485;51.536;3.816;2022-08-05T15:57:23;22.00;51.40
48686;DHT22;34485;51.536;3.816;2022-08-05T15:59:49;21.90;52.50
48686;DHT22;34485;51.536;3.816;2022-08-05T16:02:15;22.00;52.60
48686;DHT22;34485;51.536;3.816;2022-08-05T16:04:41;22.20;52.60
48686;DHT22;34485;51.536;3.816;2022-08-05T16:07:07;22.40;51.30
48686;DHT22;34485;51.536;3.816;2022-08-05T16:09:33;22.40;50.20
48686;DHT22;34485;51.536;3.816;2022-08-05T16:11:59;22.40;49.40
48686;DHT22;34485;51.536;3.816;2022-08-05T16:14:25;22.40;50.00
48686;DHT22;34485;51.536;3.816;2022-08-05T16:16:50;22.40;49.30
48686;DHT22;34485;51.536;3.816;2022-08-05T16:19:16;22.30;49.00